sensor_id;sensor_type;location;lat;lon;timestamp;P1;durP1;ratioP1;P2;durP2;ratioP2
58242;SDS011;50118;53.232;8.252;2023-07-29T00:00:51;14.07;;;8.48;;
58242;SDS011;50118;53.232;8.252;2023-07-29T00:03:17;14.98;;;9.57;;
58242;SDS011;50118;53.232;8.252;2023-07-29T00:05:42;13.57;;;9.02;;
58242;SDS011;50118;53.232;8.252;2023-07-29T00:08:08;13.20;;;9.10;;
58242;SDS011;50118;53.232;8.252;2023-07-29T00:10:35;15.95;;;10.15;;
58242;SDS011;50118;53.232;8.252;2023-07-29T00:13:02;14.30;;;9.35;;
58242;SDS011;50118;53.232;8.252;2023-07-29T00:15:28;14.13;;;9.23;;
58242;SDS011;50118;53.232;8.252;2023-07-29T00:17:53;15.57;;;9.95;;
58242;SDS011;50118;53.232;8.252;2023-07-29T00:20:19;15.55;;;10.10;;
58242;SDS011;50118;53.232;8.252;2023-07-29T00:22:44;14.73;;;8.48;;
58242;SDS011;50118;53.232;8.252;2023-07-29T00:25:10;12.35;;;8.07;;
58242;SDS011;50118;53.232;8.252;2023-07-29T00:27:35;12.63;;;8.25;;
58242;SDS011;50118;53.232;8.252;2023-07-29T00:30:01;12.65;;;8.27;;
58242;SDS011;50118;53.232;8.252;2023-07-29T00:32:29;12.32;;;8.25;;
58242;SDS011;50118;53.232;8.252;2023-07-29T00:34:55;13.85;;;8.55;;
58242;SDS011;50118;53.232;8.252;2023-07-29T00:37:21;14.48;;;8.73;;
58242;SDS011;50118;53.232;8.252;2023-07-29T00:39:46;15.50;;;9.25;;
58242;SDS011;50118;53.232;8.252;2023-07-29T00:42:12;11.20;;;7.70;;
58242;SDS011;50118;53.232;8.252;2023-07-29T00:44:37;14.52;;;9.10;;
58242;SDS011;50118;53.232;8.252;2023-07-29T00:47:03;13.93;;;8.68;;
58242;SDS011;50118;53.232;8.252;2023-07-29T00:49:30;11.98;;;8.23;;
58242;SDS011;50118;53.232;8.252;2023-07-29T00:51:57;11.93;;;8.07;;
58242;SDS011;50118;53.232;8.252;2023-07-29T00:54:22;12.23;;;7.97;;
58242;SDS011;50118;53.232;8.252;2023-07-29T00:56:48;13.95;;;8.10;;
58242;SDS011;50118;53.232;8.252;2023-07-29T00:59:14;13.23;;;8.32;;
58242;SDS011;50118;53.232;8.252;2023-07-29T01:01:40;14.55;;;9.40;;
58242;SDS011;50118;53.232;8.252;2023-07-29T01:04:06;13.13;;;8.02;;
58242;SDS011;50118;53.232;8.252;2023-07-29T01:06:40;15.68;;;10.07;;
58242;SDS011;50118;53.232;8.252;2023-07-29T01:20:33;12.68;;;7.47;;
58242;SDS011;50118;53.232;8.252;2023-07-29T01:23:02;11.70;;;7.03;;
58242;SDS011;50118;53.232;8.252;2023-07-29T01:25:27;12.35;;;8.13;;
58242;SDS011;50118;53.232;8.252;2023-07-29T01:27:53;13.75;;;8.57;;
58242;SDS011;50118;53.232;8.252;2023-07-29T01:30:20;12.27;;;7.85;;
58242;SDS011;50118;53.232;8.252;2023-07-29T01:32:53;14.60;;;8.10;;
58242;SDS011;50118;53.232;8.252;2023-07-29T01:35:31;10.63;;;7.20;;
58242;SDS011;50118;53.232;8.252;2023-07-29T01:38:09;12.63;;;8.07;;
58242;SDS011;50118;53.232;8.252;2023-07-29T01:40:39;13.55;;;7.85;;
58242;SDS011;50118;53.232;8.252;2023-07-29T01:43:06;12.60;;;7.22;;
58242;SDS011;50118;53.232;8.252;2023-07-29T01:45:33;12.68;;;6.75;;
58242;SDS011;50118;53.232;8.252;2023-07-29T01:48:08;10.38;;;6.90;;
58242;SDS011;50118;53.232;8.252;2023-07-29T01:50:36;11.60;;;7.50;;
58242;SDS011;50118;53.232;8.252;2023-07-29T01:53:01;10.13;;;6.70;;
58242;SDS011;50118;53.232;8.252;2023-07-29T01:55:27;12.57;;;7.50;;
58242;SDS011;50118;53.232;8.252;2023-07-29T01:57:53;10.40;;;6.97;;
58242;SDS011;50118;53.232;8.252;2023-07-29T02:00:19;14.27;;;8.25;;
58242;SDS011;50118;53.232;8.252;2023-07-29T02:02:45;12.52;;;7.38;;
58242;SDS011;50118;53.232;8.252;2023-07-29T02:05:13;11.27;;;6.88;;
58242;SDS011;50118;53.232;8.252;2023-07-29T02:07:39;11.30;;;6.93;;
58242;SDS011;50118;53.232;8.252;2023-07-29T02:10:04;10.82;;;6.78;;
58242;SDS011;50118;53.232;8.252;2023-07-29T02:12:30;8.52;;;6.32;;
58242;SDS011;50118;53.232;8.252;2023-07-29T02:14:56;8.45;;;5.53;;
58242;SDS011;50118;53.232;8.252;2023-07-29T02:17:21;10.00;;;6.47;;
58242;SDS011;50118;53.232;8.252;2023-07-29T02:19:51;8.80;;;6.05;;
58242;SDS011;50118;53.232;8.252;2023-07-29T02:22:17;9.45;;;6.03;;
58242;SDS011;50118;53.232;8.252;2023-07-29T02:24:43;13.70;;;8.32;;
58242;SDS011;50118;53.232;8.252;2023-07-29T02:27:08;12.45;;;7.25;;
58242;SDS011;50118;53.232;8.252;2023-07-29T02:29:34;12.40;;;7.25;;
58242;SDS011;50118;53.232;8.252;2023-07-29T02:32:00;10.98;;;7.13;;
58242;SDS011;50118;53.232;8.252;2023-07-29T02:34:25;12.15;;;7.07;;
58242;SDS011;50118;53.232;8.252;2023-07-29T02:36:51;11.45;;;7.00;;
58242;SDS011;50118;53.232;8.252;2023-07-29T02:39:16;11.73;;;7.40;;
58242;SDS011;50118;53.232;8.252;2023-07-29T02:41:42;15.90;;;8.93;;
58242;SDS011;50118;53.232;8.252;2023-07-29T02:44:07;17.63;;;8.95;;
58242;SDS011;50118;53.232;8.252;2023-07-29T02:46:33;13.27;;;7.15;;
58242;SDS011;50118;53.232;8.252;2023-07-29T02:48:59;9.73;;;6.22;;
58242;SDS011;50118;53.232;8.252;2023-07-29T02:51:24;12.38;;;7.18;;
58242;SDS011;50118;53.232;8.252;2023-07-29T02:53:50;13.07;;;7.47;;
58242;SDS011;50118;53.232;8.252;2023-07-29T02:56:15;11.52;;;6.68;;
58242;SDS011;50118;53.232;8.252;2023-07-29T02:58:41;14.50;;;8.45;;
58242;SDS011;50118;53.232;8.252;2023-07-29T03:01:06;14.13;;;8.88;;
58242;SDS011;50118;53.232;8.252;2023-07-29T03:03:32;13.15;;;7.57;;
58242;SDS011;50118;53.232;8.252;2023-07-29T03:06:05;12.90;;;8.18;;
58242;SDS011;50118;53.232;8.252;2023-07-29T03:08:34;13.52;;;7.85;;
58242;SDS011;50118;53.232;8.252;2023-07-29T03:11:07;15.60;;;8.55;;
58242;SDS011;50118;53.232;8.252;2023-07-29T03:13:37;15.73;;;9.32;;
58242;SDS011;50118;53.232;8.252;2023-07-29T03:16:06;16.23;;;9.07;;
58242;SDS011;50118;53.232;8.252;2023-07-29T03:18:32;17.30;;;9.23;;
58242;SDS011;50118;53.232;8.252;2023-07-29T03:20:57;16.50;;;9.15;;
58242;SDS011;50118;53.232;8.252;2023-07-29T03:23:30;14.30;;;9.35;;
58242;SDS011;50118;53.232;8.252;2023-07-29T03:26:00;13.98;;;9.50;;
58242;SDS011;50118;53.232;8.252;2023-07-29T03:28:28;16.52;;;10.63;;
58242;SDS011;50118;53.232;8.252;2023-07-29T03:30:57;18.98;;;12.18;;
58242;SDS011;50118;53.232;8.252;2023-07-29T03:33:23;18.60;;;12.80;;
58242;SDS011;50118;53.232;8.252;2023-07-29T03:35:49;24.83;;;16.75;;
58242;SDS011;50118;53.232;8.252;2023-07-29T03:38:15;21.83;;;14.63;;
58242;SDS011;50118;53.232;8.252;2023-07-29T03:40:41;19.58;;;13.60;;
58242;SDS011;50118;53.232;8.252;2023-07-29T03:43:07;27.48;;;16.75;;
58242;SDS011;50118;53.232;8.252;2023-07-29T03:45:33;22.10;;;15.38;;
58242;SDS011;50118;53.232;8.252;2023-07-29T03:47:59;20.95;;;14.32;;
58242;SDS011;50118;53.232;8.252;2023-07-29T03:50:25;22.15;;;14.98;;
58242;SDS011;50118;53.232;8.252;2023-07-29T03:52:51;24.45;;;17.27;;
58242;SDS011;50118;53.232;8.252;2023-07-29T03:55:17;22.98;;;16.05;;
58242;SDS011;50118;53.232;8.252;2023-07-29T03:57:42;23.63;;;16.88;;
58242;SDS011;50118;53.232;8.252;2023-07-29T04:00:08;23.02;;;15.73;;
58242;SDS011;50118;53.232;8.252;2023-07-29T04:02:36;23.33;;;16.58;;
58242;SDS011;50118;53.232;8.252;2023-07-29T04:05:05;19.65;;;14.25;;
58242;SDS011;50118;53.232;8.252;2023-07-29T04:07:34;19.08;;;13.55;;
58242;SDS011;50118;53.232;8.252;2023-07-29T04:10:00;22.08;;;15.32;;
58242;SDS011;50118;53.232;8.252;2023-07-29T04:12:27;23.20;;;17.05;;
58242;SDS011;50118;53.232;8.252;2023-07-29T04:14:53;23.08;;;15.82;;
58242;SDS011;50118;53.232;8.252;2023-07-29T04:17:18;20.30;;;14.13;;
58242;SDS011;50118;53.232;8.252;2023-07-29T04:19:44;19.77;;;14.00;;
58242;SDS011;50118;53.232;8.252;2023-07-29T04:22:09;16.88;;;12.98;;
58242;SDS011;50118;53.232;8.252;2023-07-29T04:24:35;15.90;;;11.30;;
58242;SDS011;50118;53.232;8.252;2023-07-29T04:27:00;21.05;;;13.65;;
58242;SDS011;50118;53.232;8.252;2023-07-29T04:29:26;21.60;;;15.23;;
58242;SDS011;50118;53.232;8.252;2023-07-29T04:31:52;20.13;;;14.07;;
58242;SDS011;50118;53.232;8.252;2023-07-29T04:34:18;19.67;;;15.10;;
58242;SDS011;50118;53.232;8.252;2023-07-29T04:36:47;19.13;;;12.73;;
58242;SDS011;50118;53.232;8.252;2023-07-29T04:39:13;23.15;;;17.08;;
58242;SDS011;50118;53.232;8.252;2023-07-29T04:41:39;20.48;;;14.57;;
58242;SDS011;50118;53.232;8.252;2023-07-29T04:44:04;17.80;;;13.02;;
58242;SDS011;50118;53.232;8.252;2023-07-29T04:46:30;22.25;;;16.50;;
58242;SDS011;50118;53.232;8.252;2023-07-29T04:48:55;23.73;;;16.88;;
58242;SDS011;50118;53.232;8.252;2023-07-29T04:51:21;18.63;;;13.93;;
58242;SDS011;50118;53.232;8.252;2023-07-29T04:53:46;21.70;;;15.57;;
58242;SDS011;50118;53.232;8.252;2023-07-29T04:56:12;26.90;;;17.70;;
58242;SDS011;50118;53.232;8.252;2023-07-29T04:58:37;19.85;;;14.57;;
58242;SDS011;50118;53.232;8.252;2023-07-29T05:01:03;20.85;;;15.23;;
58242;SDS011;50118;53.232;8.252;2023-07-29T05:03:29;25.60;;;17.70;;
58242;SDS011;50118;53.232;8.252;2023-07-29T05:05:55;25.55;;;18.20;;
58242;SDS011;50118;53.232;8.252;2023-07-29T05:08:22;23.35;;;16.80;;
58242;SDS011;50118;53.232;8.252;2023-07-29T05:10:50;24.88;;;17.08;;
58242;SDS011;50118;53.232;8.252;2023-07-29T05:13:17;25.25;;;18.08;;
58242;SDS011;50118;53.232;8.252;2023-07-29T05:15:43;24.80;;;17.05;;
58242;SDS011;50118;53.232;8.252;2023-07-29T05:18:08;21.73;;;16.30;;
58242;SDS011;50118;53.232;8.252;2023-07-29T05:20:33;21.42;;;15.38;;
58242;SDS011;50118;53.232;8.252;2023-07-29T05:22:59;20.98;;;15.93;;
58242;SDS011;50118;53.232;8.252;2023-07-29T05:25:25;20.77;;;14.93;;
58242;SDS011;50118;53.232;8.252;2023-07-29T05:27:50;19.20;;;14.27;;
58242;SDS011;50118;53.232;8.252;2023-07-29T05:30:16;21.85;;;15.35;;
58242;SDS011;50118;53.232;8.252;2023-07-29T05:32:41;19.48;;;14.07;;
58242;SDS011;50118;53.232;8.252;2023-07-29T05:35:07;19.10;;;13.63;;
58242;SDS011;50118;53.232;8.252;2023-07-29T05:37:33;17.10;;;14.00;;
58242;SDS011;50118;53.232;8.252;2023-07-29T05:39:58;17.83;;;13.45;;
58242;SDS011;50118;53.232;8.252;2023-07-29T05:42:24;17.65;;;12.82;;
58242;SDS011;50118;53.232;8.252;2023-07-29T05:44:49;17.63;;;13.50;;
58242;SDS011;50118;53.232;8.252;2023-07-29T05:47:15;14.80;;;11.80;;
58242;SDS011;50118;53.232;8.252;2023-07-29T05:49:40;19.70;;;13.70;;
58242;SDS011;50118;53.232;8.252;2023-07-29T05:52:06;16.30;;;12.40;;
58242;SDS011;50118;53.232;8.252;2023-07-29T05:54:31;19.30;;;13.98;;
58242;SDS011;50118;53.232;8.252;2023-07-29T05:56:57;19.27;;;13.65;;
58242;SDS011;50118;53.232;8.252;2023-07-29T05:59:22;14.50;;;11.80;;
58242;SDS011;50118;53.232;8.252;2023-07-29T06:01:47;15.18;;;12.25;;
58242;SDS011;50118;53.232;8.252;2023-07-29T06:04:13;14.20;;;11.20;;
58242;SDS011;50118;53.232;8.252;2023-07-29T06:06:38;15.05;;;11.38;;
58242;SDS011;50118;53.232;8.252;2023-07-29T06:09:04;17.08;;;11.05;;
58242;SDS011;50118;53.232;8.252;2023-07-29T06:11:29;16.15;;;12.15;;
58242;SDS011;50118;53.232;8.252;2023-07-29T06:13:54;16.08;;;10.95;;
58242;SDS011;50118;53.232;8.252;2023-07-29T06:16:20;12.80;;;10.07;;
58242;SDS011;50118;53.232;8.252;2023-07-29T06:18:45;12.82;;;10.35;;
58242;SDS011;50118;53.232;8.252;2023-07-29T06:21:11;14.82;;;10.13;;
58242;SDS011;50118;53.232;8.252;2023-07-29T06:23:41;13.20;;;10.27;;
58242;SDS011;50118;53.232;8.252;2023-07-29T06:26:08;15.00;;;10.23;;
58242;SDS011;50118;53.232;8.252;2023-07-29T06:28:33;13.13;;;10.13;;
58242;SDS011;50118;53.232;8.252;2023-07-29T06:30:58;12.80;;;9.70;;
58242;SDS011;50118;53.232;8.252;2023-07-29T06:33:24;13.23;;;10.02;;
58242;SDS011;50118;53.232;8.252;2023-07-29T06:35:49;11.73;;;9.00;;
58242;SDS011;50118;53.232;8.252;2023-07-29T06:38:15;12.77;;;9.80;;
58242;SDS011;50118;53.232;8.252;2023-07-29T06:40:44;12.57;;;9.23;;
58242;SDS011;50118;53.232;8.252;2023-07-29T06:43:09;12.65;;;9.32;;
58242;SDS011;50118;53.232;8.252;2023-07-29T06:45:35;12.00;;;9.23;;
58242;SDS011;50118;53.232;8.252;2023-07-29T06:48:00;13.15;;;8.48;;
58242;SDS011;50118;53.232;8.252;2023-07-29T06:50:25;12.75;;;8.38;;
58242;SDS011;50118;53.232;8.252;2023-07-29T06:52:51;11.23;;;7.40;;
58242;SDS011;50118;53.232;8.252;2023-07-29T06:55:16;9.63;;;7.20;;
58242;SDS011;50118;53.232;8.252;2023-07-29T06:57:41;10.70;;;7.53;;
58242;SDS011;50118;53.232;8.252;2023-07-29T07:00:07;10.10;;;6.68;;
58242;SDS011;50118;53.232;8.252;2023-07-29T07:02:34;8.05;;;6.32;;
58242;SDS011;50118;53.232;8.252;2023-07-29T07:04:59;8.40;;;5.95;;
58242;SDS011;50118;53.232;8.252;2023-07-29T07:07:25;8.13;;;6.15;;
58242;SDS011;50118;53.232;8.252;2023-07-29T07:09:50;8.00;;;6.18;;
58242;SDS011;50118;53.232;8.252;2023-07-29T07:12:16;9.10;;;6.00;;
58242;SDS011;50118;53.232;8.252;2023-07-29T07:14:41;10.20;;;6.18;;
58242;SDS011;50118;53.232;8.252;2023-07-29T07:17:06;8.15;;;6.10;;
58242;SDS011;50118;53.232;8.252;2023-07-29T07:19:32;8.93;;;5.90;;
58242;SDS011;50118;53.232;8.252;2023-07-29T07:21:57;8.60;;;5.95;;
58242;SDS011;50118;53.232;8.252;2023-07-29T07:24:23;8.70;;;5.20;;
58242;SDS011;50118;53.232;8.252;2023-07-29T07:26:48;7.15;;;5.30;;
58242;SDS011;50118;53.232;8.252;2023-07-29T07:29:13;7.53;;;4.53;;
58242;SDS011;50118;53.232;8.252;2023-07-29T07:31:39;7.45;;;4.32;;
58242;SDS011;50118;53.232;8.252;2023-07-29T07:34:04;6.18;;;4.10;;
58242;SDS011;50118;53.232;8.252;2023-07-29T07:36:30;6.32;;;4.07;;
58242;SDS011;50118;53.232;8.252;2023-07-29T07:38:56;7.13;;;4.00;;
58242;SDS011;50118;53.232;8.252;2023-07-29T07:41:21;4.60;;;3.40;;
58242;SDS011;50118;53.232;8.252;2023-07-29T07:43:47;6.30;;;3.40;;
58242;SDS011;50118;53.232;8.252;2023-07-29T07:46:12;5.22;;;2.80;;
58242;SDS011;50118;53.232;8.252;2023-07-29T07:48:38;4.70;;;2.63;;
58242;SDS011;50118;53.232;8.252;2023-07-29T07:51:12;4.90;;;2.80;;
58242;SDS011;50118;53.232;8.252;2023-07-29T07:53:38;4.13;;;2.35;;
58242;SDS011;50118;53.232;8.252;2023-07-29T07:56:04;3.80;;;2.33;;
58242;SDS011;50118;53.232;8.252;2023-07-29T07:58:29;4.10;;;2.38;;
58242;SDS011;50118;53.232;8.252;2023-07-29T08:01:07;4.95;;;2.42;;
58242;SDS011;50118;53.232;8.252;2023-07-29T08:03:34;5.05;;;2.30;;
58242;SDS011;50118;53.232;8.252;2023-07-29T08:06:00;4.47;;;2.15;;
58242;SDS011;50118;53.232;8.252;2023-07-29T08:08:26;3.03;;;2.05;;
58242;SDS011;50118;53.232;8.252;2023-07-29T08:10:52;4.30;;;2.20;;
58242;SDS011;50118;53.232;8.252;2023-07-29T08:13:19;6.15;;;2.30;;
58242;SDS011;50118;53.232;8.252;2023-07-29T08:15:46;4.15;;;2.20;;
58242;SDS011;50118;53.232;8.252;2023-07-29T08:18:15;4.38;;;2.30;;
58242;SDS011;50118;53.232;8.252;2023-07-29T08:20:51;3.83;;;2.30;;
58242;SDS011;50118;53.232;8.252;2023-07-29T08:23:18;4.80;;;2.97;;
58242;SDS011;50118;53.232;8.252;2023-07-29T08:25:44;4.60;;;3.08;;
58242;SDS011;50118;53.232;8.252;2023-07-29T08:28:09;4.57;;;2.75;;
58242;SDS011;50118;53.232;8.252;2023-07-29T08:30:36;4.47;;;2.60;;
58242;SDS011;50118;53.232;8.252;2023-07-29T08:33:01;6.15;;;2.70;;
58242;SDS011;50118;53.232;8.252;2023-07-29T08:35:27;4.07;;;2.30;;
58242;SDS011;50118;53.232;8.252;2023-07-29T08:37:52;3.50;;;1.92;;
58242;SDS011;50118;53.232;8.252;2023-07-29T08:40:18;4.22;;;1.92;;
58242;SDS011;50118;53.232;8.252;2023-07-29T08:42:52;3.28;;;2.10;;
58242;SDS011;50118;53.232;8.252;2023-07-29T08:45:20;3.75;;;1.80;;
58242;SDS011;50118;53.232;8.252;2023-07-29T08:47:46;5.03;;;1.85;;
58242;SDS011;50118;53.232;8.252;2023-07-29T08:50:15;3.13;;;1.98;;
58242;SDS011;50118;53.232;8.252;2023-07-29T08:52:41;6.63;;;2.47;;
58242;SDS011;50118;53.232;8.252;2023-07-29T08:55:09;4.10;;;1.67;;
58242;SDS011;50118;53.232;8.252;2023-07-29T08:57:35;4.53;;;2.20;;
58242;SDS011;50118;53.232;8.252;2023-07-29T09:00:00;3.83;;;2.00;;
58242;SDS011;50118;53.232;8.252;2023-07-29T09:02:27;3.47;;;2.17;;
58242;SDS011;50118;53.232;8.252;2023-07-29T09:04:53;4.45;;;2.30;;
58242;SDS011;50118;53.232;8.252;2023-07-29T09:07:18;3.58;;;2.08;;
58242;SDS011;50118;53.232;8.252;2023-07-29T09:09:45;3.92;;;2.10;;
58242;SDS011;50118;53.232;8.252;2023-07-29T09:12:10;4.00;;;2.05;;
58242;SDS011;50118;53.232;8.252;2023-07-29T09:14:37;3.55;;;2.00;;
58242;SDS011;50118;53.232;8.252;2023-07-29T09:17:02;5.00;;;2.50;;
58242;SDS011;50118;53.232;8.252;2023-07-29T09:19:32;4.60;;;2.20;;
58242;SDS011;50118;53.232;8.252;2023-07-29T09:21:58;4.28;;;2.40;;
58242;SDS011;50118;53.232;8.252;2023-07-29T09:24:24;3.42;;;2.33;;
58242;SDS011;50118;53.232;8.252;2023-07-29T09:26:49;5.45;;;2.38;;
58242;SDS011;50118;53.232;8.252;2023-07-29T09:29:15;3.55;;;2.15;;
58242;SDS011;50118;53.232;8.252;2023-07-29T09:31:46;3.95;;;2.38;;
58242;SDS011;50118;53.232;8.252;2023-07-29T09:34:12;3.90;;;2.20;;
58242;SDS011;50118;53.232;8.252;2023-07-29T09:36:42;4.18;;;2.20;;
58242;SDS011;50118;53.232;8.252;2023-07-29T09:39:10;3.92;;;2.00;;
58242;SDS011;50118;53.232;8.252;2023-07-29T09:41:38;3.38;;;2.28;;
58242;SDS011;50118;53.232;8.252;2023-07-29T09:44:03;6.13;;;2.08;;
58242;SDS011;50118;53.232;8.252;2023-07-29T09:46:34;3.72;;;2.10;;
58242;SDS011;50118;53.232;8.252;2023-07-29T09:49:05;4.05;;;2.10;;
58242;SDS011;50118;53.232;8.252;2023-07-29T09:51:32;4.40;;;2.30;;
58242;SDS011;50118;53.232;8.252;2023-07-29T09:54:02;2.53;;;1.85;;
58242;SDS011;50118;53.232;8.252;2023-07-29T09:56:28;2.72;;;1.90;;
58242;SDS011;50118;53.232;8.252;2023-07-29T09:58:56;3.28;;;2.00;;
58242;SDS011;50118;53.232;8.252;2023-07-29T10:01:24;4.38;;;2.10;;
58242;SDS011;50118;53.232;8.252;2023-07-29T10:03:50;4.43;;;1.95;;
58242;SDS011;50118;53.232;8.252;2023-07-29T10:06:15;4.05;;;2.10;;
58242;SDS011;50118;53.232;8.252;2023-07-29T10:08:42;21.50;;;5.90;;
58242;SDS011;50118;53.232;8.252;2023-07-29T10:11:09;3.25;;;2.20;;
58242;SDS011;50118;53.232;8.252;2023-07-29T10:13:36;4.00;;;2.10;;
58242;SDS011;50118;53.232;8.252;2023-07-29T10:16:02;3.75;;;1.90;;
58242;SDS011;50118;53.232;8.252;2023-07-29T10:18:32;4.28;;;2.15;;
58242;SDS011;50118;53.232;8.252;2023-07-29T10:20:59;3.72;;;1.90;;
58242;SDS011;50118;53.232;8.252;2023-07-29T10:23:27;4.07;;;1.80;;
58242;SDS011;50118;53.232;8.252;2023-07-29T10:26:04;3.15;;;1.80;;
58242;SDS011;50118;53.232;8.252;2023-07-29T10:28:31;3.33;;;1.98;;
58242;SDS011;50118;53.232;8.252;2023-07-29T10:30:57;5.13;;;2.15;;
58242;SDS011;50118;53.232;8.252;2023-07-29T10:33:24;4.38;;;2.00;;
58242;SDS011;50118;53.232;8.252;2023-07-29T10:35:51;4.28;;;1.90;;
58242;SDS011;50118;53.232;8.252;2023-07-29T10:38:19;4.70;;;2.00;;
58242;SDS011;50118;53.232;8.252;2023-07-29T10:40:51;4.40;;;2.22;;
58242;SDS011;50118;53.232;8.252;2023-07-29T10:43:29;5.75;;;2.30;;
58242;SDS011;50118;53.232;8.252;2023-07-29T10:45:57;4.05;;;2.20;;
58242;SDS011;50118;53.232;8.252;2023-07-29T10:48:41;3.92;;;2.20;;
58242;SDS011;50118;53.232;8.252;2023-07-29T10:51:24;5.65;;;2.42;;
58242;SDS011;50118;53.232;8.252;2023-07-29T10:56:32;4.50;;;2.22;;
58242;SDS011;50118;53.232;8.252;2023-07-29T10:59:01;4.13;;;2.00;;
58242;SDS011;50118;53.232;8.252;2023-07-29T11:01:52;4.53;;;1.90;;
58242;SDS011;50118;53.232;8.252;2023-07-29T11:17:46;3.70;;;2.10;;
58242;SDS011;50118;53.232;8.252;2023-07-29T11:20:20;3.88;;;2.20;;
58242;SDS011;50118;53.232;8.252;2023-07-29T11:22:47;4.75;;;2.20;;
58242;SDS011;50118;53.232;8.252;2023-07-29T11:25:13;3.70;;;2.20;;
58242;SDS011;50118;53.232;8.252;2023-07-29T11:27:40;4.60;;;2.35;;
58242;SDS011;50118;53.232;8.252;2023-07-29T11:30:07;3.80;;;2.25;;
58242;SDS011;50118;53.232;8.252;2023-07-29T11:32:35;4.50;;;2.45;;
58242;SDS011;50118;53.232;8.252;2023-07-29T11:37:32;4.78;;;2.30;;
58242;SDS011;50118;53.232;8.252;2023-07-29T11:40:02;4.07;;;2.35;;
58242;SDS011;50118;53.232;8.252;2023-07-29T11:42:27;4.65;;;2.40;;
58242;SDS011;50118;53.232;8.252;2023-07-29T11:44:57;5.90;;;2.50;;
58242;SDS011;50118;53.232;8.252;2023-07-29T11:47:23;3.55;;;2.03;;
58242;SDS011;50118;53.232;8.252;2023-07-29T11:49:49;3.53;;;2.20;;
58242;SDS011;50118;53.232;8.252;2023-07-29T11:52:14;2.95;;;1.90;;
58242;SDS011;50118;53.232;8.252;2023-07-29T11:54:44;4.32;;;2.10;;
58242;SDS011;50118;53.232;8.252;2023-07-29T11:57:09;4.75;;;2.00;;
58242;SDS011;50118;53.232;8.252;2023-07-29T11:59:35;4.60;;;2.22;;
58242;SDS011;50118;53.232;8.252;2023-07-29T12:02:36;3.38;;;2.10;;
58242;SDS011;50118;53.232;8.252;2023-07-29T12:04:54;2.97;;;2.10;;
58242;SDS011;50118;53.232;8.252;2023-07-29T12:07:22;3.88;;;2.05;;
58242;SDS011;50118;53.232;8.252;2023-07-29T12:09:48;4.00;;;2.00;;
58242;SDS011;50118;53.232;8.252;2023-07-29T12:12:15;2.95;;;1.88;;
58242;SDS011;50118;53.232;8.252;2023-07-29T12:14:43;3.75;;;1.88;;
58242;SDS011;50118;53.232;8.252;2023-07-29T12:17:10;5.00;;;1.80;;
58242;SDS011;50118;53.232;8.252;2023-07-29T12:19:36;3.45;;;1.80;;
58242;SDS011;50118;53.232;8.252;2023-07-29T12:22:03;6.18;;;2.15;;
58242;SDS011;50118;53.232;8.252;2023-07-29T12:24:30;3.95;;;1.90;;
58242;SDS011;50118;53.232;8.252;2023-07-29T12:26:57;3.50;;;1.77;;
58242;SDS011;50118;53.232;8.252;2023-07-29T12:29:23;3.15;;;1.80;;
58242;SDS011;50118;53.232;8.252;2023-07-29T12:31:49;2.33;;;1.70;;
58242;SDS011;50118;53.232;8.252;2023-07-29T12:34:22;3.25;;;1.83;;
58242;SDS011;50118;53.232;8.252;2023-07-29T12:36:51;4.63;;;1.80;;
58242;SDS011;50118;53.232;8.252;2023-07-29T12:39:17;3.25;;;1.67;;
58242;SDS011;50118;53.232;8.252;2023-07-29T12:41:48;3.17;;;1.80;;
58242;SDS011;50118;53.232;8.252;2023-07-29T12:44:15;2.80;;;1.80;;
58242;SDS011;50118;53.232;8.252;2023-07-29T12:46:40;3.60;;;1.60;;
58242;SDS011;50118;53.232;8.252;2023-07-29T12:49:06;4.10;;;1.85;;
58242;SDS011;50118;53.232;8.252;2023-07-29T12:51:32;3.08;;;1.83;;
58242;SDS011;50118;53.232;8.252;2023-07-29T12:53:57;2.92;;;1.77;;
58242;SDS011;50118;53.232;8.252;2023-07-29T12:56:23;3.80;;;2.08;;
58242;SDS011;50118;53.232;8.252;2023-07-29T12:58:48;2.72;;;1.70;;
58242;SDS011;50118;53.232;8.252;2023-07-29T13:01:14;2.78;;;1.80;;
58242;SDS011;50118;53.232;8.252;2023-07-29T13:03:43;2.45;;;1.80;;
58242;SDS011;50118;53.232;8.252;2023-07-29T13:06:13;3.70;;;1.88;;
58242;SDS011;50118;53.232;8.252;2023-07-29T13:08:39;3.85;;;1.85;;
58242;SDS011;50118;53.232;8.252;2023-07-29T13:11:04;2.90;;;1.70;;
58242;SDS011;50118;53.232;8.252;2023-07-29T13:13:30;2.80;;;1.67;;
58242;SDS011;50118;53.232;8.252;2023-07-29T13:15:57;3.67;;;1.95;;
58242;SDS011;50118;53.232;8.252;2023-07-29T13:18:23;3.97;;;1.95;;
58242;SDS011;50118;53.232;8.252;2023-07-29T13:20:48;4.72;;;1.60;;
58242;SDS011;50118;53.232;8.252;2023-07-29T13:23:14;2.70;;;1.70;;
58242;SDS011;50118;53.232;8.252;2023-07-29T13:25:41;3.33;;;1.80;;
58242;SDS011;50118;53.232;8.252;2023-07-29T13:28:10;3.22;;;1.92;;
58242;SDS011;50118;53.232;8.252;2023-07-29T13:30:36;3.78;;;1.75;;
58242;SDS011;50118;53.232;8.252;2023-07-29T13:33:01;3.65;;;1.80;;
58242;SDS011;50118;53.232;8.252;2023-07-29T13:35:27;4.43;;;2.03;;
58242;SDS011;50118;53.232;8.252;2023-07-29T13:37:53;3.85;;;1.67;;
58242;SDS011;50118;53.232;8.252;2023-07-29T13:40:18;6.00;;;2.53;;
58242;SDS011;50118;53.232;8.252;2023-07-29T13:42:44;8.90;;;2.92;;
58242;SDS011;50118;53.232;8.252;2023-07-29T13:45:09;5.57;;;2.20;;
58242;SDS011;50118;53.232;8.252;2023-07-29T13:47:35;4.22;;;2.40;;
58242;SDS011;50118;53.232;8.252;2023-07-29T13:50:01;5.53;;;2.75;;
58242;SDS011;50118;53.232;8.252;2023-07-29T13:52:27;5.80;;;2.70;;
58242;SDS011;50118;53.232;8.252;2023-07-29T13:54:52;5.15;;;2.90;;
58242;SDS011;50118;53.232;8.252;2023-07-29T13:57:17;4.68;;;2.72;;
58242;SDS011;50118;53.232;8.252;2023-07-29T13:59:43;4.43;;;2.70;;
58242;SDS011;50118;53.232;8.252;2023-07-29T14:02:08;2.88;;;2.25;;
58242;SDS011;50118;53.232;8.252;2023-07-29T14:04:34;5.18;;;2.70;;
58242;SDS011;50118;53.232;8.252;2023-07-29T14:06:59;2.95;;;2.15;;
58242;SDS011;50118;53.232;8.252;2023-07-29T14:09:25;3.90;;;2.30;;
58242;SDS011;50118;53.232;8.252;2023-07-29T14:11:55;3.78;;;2.40;;
58242;SDS011;50118;53.232;8.252;2023-07-29T14:14:21;3.10;;;2.60;;
58242;SDS011;50118;53.232;8.252;2023-07-29T14:16:46;3.78;;;2.80;;
58242;SDS011;50118;53.232;8.252;2023-07-29T14:19:12;4.97;;;3.00;;
58242;SDS011;50118;53.232;8.252;2023-07-29T14:21:38;5.10;;;3.33;;
58242;SDS011;50118;53.232;8.252;2023-07-29T14:24:05;4.25;;;3.25;;
58242;SDS011;50118;53.232;8.252;2023-07-29T14:26:31;4.93;;;3.20;;
58242;SDS011;50118;53.232;8.252;2023-07-29T14:28:57;4.65;;;3.10;;
58242;SDS011;50118;53.232;8.252;2023-07-29T14:31:22;4.85;;;3.20;;
58242;SDS011;50118;53.232;8.252;2023-07-29T14:33:48;4.78;;;3.35;;
58242;SDS011;50118;53.232;8.252;2023-07-29T14:36:14;5.93;;;3.40;;
58242;SDS011;50118;53.232;8.252;2023-07-29T14:38:41;4.80;;;3.50;;
58242;SDS011;50118;53.232;8.252;2023-07-29T14:41:09;3.67;;;3.10;;
58242;SDS011;50118;53.232;8.252;2023-07-29T14:43:35;5.03;;;3.58;;
58242;SDS011;50118;53.232;8.252;2023-07-29T14:46:01;4.45;;;2.92;;
58242;SDS011;50118;53.232;8.252;2023-07-29T14:48:27;3.88;;;2.90;;
58242;SDS011;50118;53.232;8.252;2023-07-29T14:50:53;6.00;;;2.88;;
58242;SDS011;50118;53.232;8.252;2023-07-29T14:53:18;4.53;;;3.00;;
58242;SDS011;50118;53.232;8.252;2023-07-29T14:55:43;6.07;;;3.05;;
58242;SDS011;50118;53.232;8.252;2023-07-29T14:58:09;5.55;;;2.70;;
58242;SDS011;50118;53.232;8.252;2023-07-29T15:00:34;5.50;;;2.40;;
58242;SDS011;50118;53.232;8.252;2023-07-29T15:03:00;5.40;;;2.60;;
58242;SDS011;50118;53.232;8.252;2023-07-29T15:05:25;3.30;;;2.47;;